Time;durP1;ratioP1;P1;durP2;ratioP2;P2;SDS_P1;SDS_P2;PMS_P1;PMS_P2;Temp;Humidity;BMP_temperature;BMP_pressure;BME280_temperature;BME280_humidity;BME280_pressure;Samples;Min_cycle;Max_cycle;Signal;HPM_P1;HPM_P2
2023/12/18 00:00:57;;;;;;;13.30;9.80;;;;;;;3.31;100.00;103110.38;5047606;28;20028;-64
2023/12/18 00:03:22;;;;;;;11.10;9.13;;;;;;;3.38;100.00;103113.53;5047333;28;20064;-63
2023/12/18 00:05:47;;;;;;;14.07;9.60;;;;;;;3.35;100.00;103121.81;5047659;28;20287;-63
2023/12/18 00:08:13;;;;;;;12.83;9.17;;;;;;;3.38;100.00;103118.66;5035294;28;20026;-64
2023/12/18 00:10:38;;;;;;;14.37;9.60;;;;;;;3.45;100.00;103116.84;5058360;28;20032;-64
2023/12/18 00:13:03;;;;;;;15.90;9.40;;;;;;;3.45;100.00;103118.53;5047181;28;20095;-64
2023/12/18 00:15:28;;;;;;;15.50;10.37;;;;;;;3.50;100.00;103117.31;5047354;28;20028;-63
2023/12/18 00:17:54;;;;;;;13.20;9.80;;;;;;;3.52;100.00;103120.94;5045896;28;20543;-63
2023/12/18 00:20:19;;;;;;;13.33;9.90;;;;;;;3.54;100.00;103114.31;5047003;28;20165;-63
2023/12/18 00:22:44;;;;;;;14.87;10.40;;;;;;;3.54;100.00;103101.47;5047263;28;20063;-63
2023/12/18 00:25:10;;;;;;;16.40;10.90;;;;;;;3.58;100.00;103088.19;5057691;28;20028;-63
2023/12/18 00:27:35;;;;;;;17.13;10.50;;;;;;;3.63;100.00;103095.41;5040135;28;20517;-64
2023/12/18 00:30:00;;;;;;;12.87;9.90;;;;;;;3.67;100.00;103089.84;5047209;28;20035;-64
2023/12/18 00:32:25;;;;;;;16.77;11.20;;;;;;;3.66;100.00;103090.56;5066151;28;20103;-63
2023/12/18 00:34:51;;;;;;;17.77;10.83;;;;;;;3.72;100.00;103086.06;5040532;28;20017;-63
2023/12/18 00:37:16;;;;;;;18.50;10.53;;;;;;;3.73;100.00;103085.28;5047005;28;20032;-63
2023/12/18 00:39:41;;;;;;;16.47;10.80;;;;;;;3.75;100.00;103091.47;5053096;28;20403;-64
2023/12/18 00:42:06;;;;;;;15.17;10.60;;;;;;;3.75;100.00;103088.91;5041208;28;20025;-64
2023/12/18 00:44:32;;;;;;;18.13;11.70;;;;;;;3.75;100.00;103085.44;5040839;28;20037;-64
2023/12/18 00:46:57;;;;;;;16.97;12.30;;;;;;;3.78;100.00;103085.75;5040920;28;20084;-64
2023/12/18 00:49:22;;;;;;;15.67;11.53;;;;;;;3.76;100.00;103085.56;5058679;28;20210;-64
2023/12/18 00:51:48;;;;;;;18.60;11.70;;;;;;;3.77;100.00;103074.56;5053087;28;20370;-63
2023/12/18 00:54:13;;;;;;;15.03;11.20;;;;;;;3.81;100.00;103080.91;5033605;28;20171;-64
2023/12/18 00:56:38;;;;;;;20.37;11.97;;;;;;;3.84;100.00;103076.06;5039887;28;20056;-63
2023/12/18 00:59:03;;;;;;;16.43;11.93;;;;;;;3.84;100.00;103071.84;5052751;28;20381;-63
2023/12/18 01:01:29;;;;;;;18.27;11.80;;;;;;;3.90;100.00;103080.88;5054175;28;20075;-63
2023/12/18 01:03:54;;;;;;;15.93;12.07;;;;;;;3.87;100.00;103081.47;5047274;28;20417;-63
2023/12/18 01:06:19;;;;;;;17.33;11.63;;;;;;;3.91;100.00;103072.41;5041916;28;20029;-64
2023/12/18 01:08:44;;;;;;;19.77;12.77;;;;;;;3.92;100.00;103080.25;5051696;28;20032;-64
2023/12/18 01:11:11;;;;;;;15.57;12.10;;;;;;;3.90;100.00;103080.88;5046241;28;20028;-64
2023/12/18 01:13:36;;;;;;;16.83;12.47;;;;;;;3.92;100.00;103076.81;5048205;28;20025;-63
2023/12/18 01:16:02;;;;;;;17.27;12.97;;;;;;;3.95;100.00;103071.97;5043775;28;20480;-63
2023/12/18 01:18:27;;;;;;;17.90;13.20;;;;;;;3.92;100.00;103079.38;5039898;28;20041;-64
2023/12/18 01:20:52;;;;;;;17.40;12.37;;;;;;;3.94;100.00;103067.59;5044018;28;20107;-63
2023/12/18 01:23:17;;;;;;;17.73;12.63;;;;;;;3.95;100.00;103069.38;5033610;28;20484;-64
2023/12/18 01:25:43;;;;;;;17.87;12.27;;;;;;;3.96;100.00;103061.84;5050841;28;20035;-63
2023/12/18 01:28:08;;;;;;;18.47;13.80;;;;;;;3.97;100.00;103073.00;5037639;28;20446;-64
2023/12/18 01:30:33;;;;;;;21.90;12.83;;;;;;;3.99;100.00;103060.31;5058958;28;20501;-64
2023/12/18 01:32:58;;;;;;;21.43;12.90;;;;;;;4.00;100.00;103064.69;5058390;28;20036;-63
2023/12/18 01:35:24;;;;;;;19.40;14.27;;;;;;;4.00;100.00;103051.84;5029974;28;20022;-63
2023/12/18 01:37:49;;;;;;;18.70;14.40;;;;;;;4.01;100.00;103058.81;5043808;28;20017;-63
2023/12/18 01:40:15;;;;;;;22.27;14.30;;;;;;;4.01;100.00;103057.13;5045779;28;20043;-64
2023/12/18 01:42:44;;;;;;;20.77;14.53;;;;;;;4.03;100.00;103062.44;5046059;28;20175;-63
2023/12/18 01:45:09;;;;;;;21.10;14.47;;;;;;;4.02;100.00;103066.66;5046495;28;20426;-64
2023/12/18 01:47:35;;;;;;;21.17;14.17;;;;;;;4.03;100.00;103071.00;5048257;28;20028;-64
2023/12/18 01:50:00;;;;;;;17.67;14.20;;;;;;;4.05;100.00;103076.28;5046063;28;20063;-64
2023/12/18 01:52:26;;;;;;;19.90;14.43;;;;;;;4.07;100.00;103085.03;5048993;28;20029;-64
2023/12/18 01:54:51;;;;;;;20.70;14.00;;;;;;;4.06;100.00;103079.03;5046023;28;20265;-64
2023/12/18 01:57:17;;;;;;;26.43;15.13;;;;;;;4.08;100.00;103082.59;5050023;28;20029;-64
2023/12/18 01:59:43;;;;;;;23.40;15.73;;;;;;;4.12;100.00;103072.66;5041950;28;20029;-63
2023/12/18 02:02:09;;;;;;;20.70;14.50;;;;;;;4.21;100.00;103070.94;5049151;28;20486;-64
2023/12/18 02:04:35;;;;;;;20.47;15.50;;;;;;;4.19;100.00;103065.66;5048216;28;20037;-63
2023/12/18 02:07:02;;;;;;;22.23;14.43;;;;;;;4.18;100.00;103071.56;5048031;28;20475;-64
2023/12/18 02:09:27;;;;;;;22.37;14.80;;;;;;;4.15;100.00;103058.47;5044694;28;20456;-64
2023/12/18 02:11:52;;;;;;;18.10;13.77;;;;;;;4.19;100.00;103059.66;5068862;28;20235;-64
2023/12/18 02:14:17;;;;;;;20.63;14.73;;;;;;;4.16;100.00;103064.47;5036003;28;20704;-63
2023/12/18 02:16:43;;;;;;;22.97;15.50;;;;;;;4.15;100.00;103057.53;5039751;28;20032;-64
2023/12/18 02:19:29;;;;;;;23.10;15.13;;;;;;;4.18;100.00;103060.38;5046546;28;20198;-63
2023/12/18 02:21:56;;;;;;;26.83;15.97;;;;;;;4.16;100.00;103054.19;5040404;28;20037;-64
2023/12/18 02:24:21;;;;;;;22.25;15.13;;;;;;;4.17;100.00;103059.47;5045164;28;20028;-64
2023/12/18 02:26:47;;;;;;;16.57;14.80;;;;;;;4.14;100.00;103056.63;5049651;28;20051;-64
2023/12/18 02:29:13;;;;;;;20.93;14.43;;;;;;;4.18;100.00;103055.25;5056137;28;20051;-64
2023/12/18 02:31:39;;;;;;;20.77;15.17;;;;;;;4.18;100.00;103047.56;5042357;28;20458;-64
2023/12/18 02:34:04;;;;;;;21.23;16.27;;;;;;;4.17;100.00;103040.63;5042917;28;20037;-64
2023/12/18 02:36:29;;;;;;;20.93;15.43;;;;;;;4.17;100.00;103045.75;5035200;28;20059;-63
2023/12/18 02:38:55;;;;;;;20.37;14.53;;;;;;;4.17;100.00;103040.63;5049338;28;20033;-63
2023/12/18 02:41:20;;;;;;;22.83;14.13;;;;;;;4.21;100.00;103040.13;5055784;28;20037;-64
2023/12/18 02:43:45;;;;;;;21.17;15.83;;;;;;;4.22;100.00;103044.53;5048906;28;20029;-64
2023/12/18 02:46:11;;;;;;;19.87;15.33;;;;;;;4.20;100.00;103043.47;5049406;28;20032;-64
2023/12/18 02:48:36;;;;;;;21.70;15.70;;;;;;;4.19;100.00;103050.25;5046959;28;20143;-63
2023/12/18 02:51:02;;;;;;;22.30;16.13;;;;;;;4.17;100.00;103041.50;5049195;28;20045;-63
2023/12/18 02:53:28;;;;;;;19.45;14.38;;;;;;;4.16;100.00;103034.59;5047408;28;20032;-64
2023/12/18 02:55:53;;;;;;;22.27;14.83;;;;;;;4.20;100.00;103030.63;5048062;28;20313;-64
2023/12/18 02:58:21;;;;;;;19.63;14.70;;;;;;;4.25;100.00;103018.22;5051208;28;20260;-64
2023/12/18 03:00:47;;;;;;;20.05;14.93;;;;;;;4.28;100.00;103021.97;5047029;28;20154;-64
2023/12/18 03:03:12;;;;;;;22.70;16.30;;;;;;;4.23;100.00;103015.50;5047108;28;20111;-64
2023/12/18 03:05:37;;;;;;;23.20;15.20;;;;;;;4.21;100.00;103017.03;5047558;28;20075;-63
2023/12/18 03:08:03;;;;;;;21.95;15.65;;;;;;;4.22;100.00;103016.28;5050090;28;20029;-63
2023/12/18 03:10:29;;;;;;;23.83;16.23;;;;;;;4.19;100.00;103005.75;5048368;28;20079;-64
2023/12/18 03:12:54;;;;;;;24.40;15.93;;;;;;;4.22;100.00;103007.69;5048660;28;20028;-64
2023/12/18 03:15:20;;;;;;;23.27;15.90;;;;;;;4.17;100.00;103008.13;5048227;28;20385;-64
2023/12/18 03:17:45;;;;;;;21.60;15.27;;;;;;;4.21;100.00;103017.03;5048524;28;20086;-63
2023/12/18 03:20:10;;;;;;;25.83;15.27;;;;;;;4.22;100.00;103013.72;5048029;28;20040;-64
2023/12/18 03:22:36;;;;;;;24.47;16.43;;;;;;;4.23;100.00;103005.25;5048091;28;20044;-63
2023/12/18 03:25:02;;;;;;;24.00;15.80;;;;;;;4.26;100.00;103008.13;5058828;28;20035;-64
2023/12/18 03:27:27;;;;;;;22.57;15.57;;;;;;;4.31;100.00;103014.59;5047458;28;20032;-64
2023/12/18 03:29:52;;;;;;;22.70;15.50;;;;;;;4.33;100.00;103007.03;5048434;28;20037;-64
2023/12/18 03:32:18;;;;;;;22.73;14.83;;;;;;;4.38;100.00;103004.88;5050656;28;20032;-64
2023/12/18 03:34:43;;;;;;;22.53;16.47;;;;;;;4.38;100.00;103002.28;5066480;28;20389;-63
2023/12/18 03:37:08;;;;;;;25.57;16.37;;;;;;;4.29;100.00;103000.69;5048757;28;20036;-64
2023/12/18 03:39:33;;;;;;;22.57;17.23;;;;;;;4.27;100.00;102994.50;5041897;28;20033;-63
2023/12/18 03:41:59;;;;;;;25.70;17.33;;;;;;;4.26;100.00;103003.00;5028538;28;20029;-63
2023/12/18 03:44:24;;;;;;;24.07;16.60;;;;;;;4.27;100.00;103016.72;5046794;28;20032;-63
2023/12/18 03:46:50;;;;;;;23.73;17.60;;;;;;;4.29;100.00;103005.84;5035592;28;20055;-63
2023/12/18 03:49:15;;;;;;;25.65;18.33;;;;;;;4.27;100.00;103003.88;5040313;28;20036;-63
2023/12/18 03:51:40;;;;;;;24.70;16.83;;;;;;;4.32;100.00;103005.19;5040356;28;20528;-63
2023/12/18 03:54:06;;;;;;;25.07;17.20;;;;;;;4.37;100.00;103008.22;5053494;28;20028;-64
2023/12/18 03:56:31;;;;;;;25.20;17.93;;;;;;;4.38;100.00;103016.06;5054364;28;20048;-64
2023/12/18 03:58:56;;;;;;;24.50;16.90;;;;;;;4.40;100.00;103016.19;5058004;28;20017;-63
2023/12/18 04:01:22;;;;;;;24.33;17.27;;;;;;;4.37;100.00;103013.34;5058748;28;20107;-64
2023/12/18 04:03:47;;;;;;;28.80;17.43;;;;;;;4.35;100.00;103017.44;5063893;28;20024;-63
2023/12/18 04:06:12;;;;;;;28.30;17.23;;;;;;;4.36;100.00;103021.78;5043599;28;20036;-63
2023/12/18 04:08:39;;;;;;;24.13;16.80;;;;;;;4.39;100.00;103022.09;5051301;28;20025;-64
2023/12/18 04:11:04;;;;;;;22.50;16.53;;;;;;;4.38;100.00;103025.41;5054727;28;20319;-64
2023/12/18 04:13:30;;;;;;;23.63;15.97;;;;;;;4.44;100.00;103018.28;5039983;28;20377;-64
2023/12/18 04:15:55;;;;;;;29.27;17.98;;;;;;;4.36;100.00;103017.56;5060358;28;20069;-64
2023/12/18 04:18:20;;;;;;;22.90;16.73;;;;;;;4.41;100.00;103015.41;5046014;28;20454;-64
2023/12/18 04:20:45;;;;;;;23.53;16.10;;;;;;;4.42;100.00;103013.00;5034263;28;20060;-64
2023/12/18 04:23:11;;;;;;;21.48;15.13;;;;;;;4.47;100.00;103004.81;5059216;28;20029;-63
2023/12/18 04:25:36;;;;;;;24.60;17.90;;;;;;;4.41;100.00;103010.28;5041322;28;20026;-63
2023/12/18 04:28:02;;;;;;;26.63;17.10;;;;;;;4.41;100.00;102997.44;5039803;28;20067;-64
2023/12/18 04:30:27;;;;;;;21.33;16.70;;;;;;;4.38;100.00;102999.72;5047422;28;20095;-64
2023/12/18 04:32:52;;;;;;;26.00;17.90;;;;;;;4.45;100.00;103002.09;5049327;28;20044;-64
2023/12/18 04:35:18;;;;;;;25.17;16.92;;;;;;;4.39;100.00;103005.00;5044597;28;20531;-64
2023/12/18 04:37:43;;;;;;;22.20;15.77;;;;;;;4.44;100.00;102995.19;5046853;28;20056;-64
2023/12/18 04:40:10;;;;;;;22.77;16.52;;;;;;;4.41;100.00;102988.06;5046670;28;20064;-63
2023/12/18 04:42:35;;;;;;;26.33;16.40;;;;;;;4.42;100.00;102996.69;5033585;28;20024;-64
2023/12/18 04:45:00;;;;;;;30.90;17.33;;;;;;;4.35;100.00;102997.81;5047136;28;20408;-63
2023/12/18 04:47:26;;;;;;;22.27;17.13;;;;;;;4.33;100.00;103002.75;5049820;28;20446;-63
2023/12/18 04:49:51;;;;;;;22.47;16.97;;;;;;;4.35;100.00;102995.22;5045290;28;20059;-63
2023/12/18 04:52:16;;;;;;;22.60;17.13;;;;;;;4.40;100.00;103003.34;5039639;28;20390;-64
2023/12/18 04:54:42;;;;;;;23.63;16.07;;;;;;;4.41;100.00;102994.88;5049336;28;20030;-63
2023/12/18 04:57:07;;;;;;;25.60;16.53;;;;;;;4.39;100.00;102999.00;5052367;28;20472;-63
2023/12/18 04:59:32;;;;;;;25.70;16.13;;;;;;;4.42;100.00;102991.56;5044826;28;20029;-63
2023/12/18 05:01:57;;;;;;;23.63;16.53;;;;;;;4.47;100.00;102984.25;5031464;28;20108;-63
2023/12/18 05:04:24;;;;;;;23.07;15.97;;;;;;;4.56;100.00;102985.13;5046604;28;20036;-63
2023/12/18 05:06:49;;;;;;;20.40;15.68;;;;;;;4.49;100.00;102993.94;5058365;28;20051;-63
2023/12/18 05:09:14;;;;;;;25.38;16.20;;;;;;;4.45;100.00;102996.97;5046583;28;20028;-64
2023/12/18 05:11:40;;;;;;;25.35;16.80;;;;;;;4.39;100.00;102991.28;5057360;28;20490;-64
2023/12/18 05:14:05;;;;;;;26.53;17.97;;;;;;;4.42;100.00;102989.00;5053746;28;20535;-64
2023/12/18 05:16:30;;;;;;;25.10;16.60;;;;;;;4.44;100.00;102996.06;5066208;28;20028;-64
2023/12/18 05:18:56;;;;;;;25.07;16.30;;;;;;;4.44;100.00;102982.34;5047364;28;20443;-64
2023/12/18 05:21:22;;;;;;;27.67;16.25;;;;;;;4.41;100.00;102982.94;5046817;28;20120;-63
2023/12/18 05:23:49;;;;;;;30.43;17.70;;;;;;;4.38;100.00;102963.78;5045327;28;20104;-63
2023/12/18 05:26:15;;;;;;;26.85;17.17;;;;;;;4.40;100.00;102978.59;5037679;28;20072;-64
2023/12/18 05:28:40;;;;;;;22.95;16.15;;;;;;;4.37;100.00;102983.41;5044720;28;20056;-63
2023/12/18 05:31:11;;;;;;;26.40;16.05;;;;;;;4.39;100.00;102986.16;5051122;28;20025;-63
2023/12/18 05:33:37;;;;;;;;;;;;;;;4.32;100.00;102979.53;5045482;28;20426;-64
2023/12/18 05:36:02;;;;;;;26.67;16.27;;;;;;;4.33;100.00;102991.63;5050260;28;20353;-63
2023/12/18 05:38:27;;;;;;;27.88;18.15;;;;;;;4.31;100.00;102991.47;5050036;28;20025;-64
2023/12/18 05:40:53;;;;;;;25.43;17.57;;;;;;;4.33;100.00;102992.50;5038744;28;20800;-63
2023/12/18 05:43:18;;;;;;;26.73;17.70;;;;;;;4.29;100.00;102994.66;5060408;28;20020;-63
2023/12/18 05:45:43;;;;;;;25.37;17.67;;;;;;;4.38;100.00;102992.94;5049916;28;20376;-64
2023/12/18 05:48:08;;;;;;;28.93;17.43;;;;;;;4.38;100.00;102999.72;5050780;28;20358;-64
2023/12/18 05:50:34;;;;;;;22.93;16.57;;;;;;;4.38;100.00;103003.22;5048903;28;20447;-63
2023/12/18 05:52:59;;;;;;;28.85;17.33;;;;;;;4.38;100.00;103002.28;5050247;28;20021;-64
2023/12/18 05:55:24;;;;;;;28.38;17.20;;;;;;;4.33;100.00;102997.63;5051504;28;20020;-64
2023/12/18 05:57:49;;;;;;;32.63;18.98;;;;;;;4.32;100.00;102994.94;5049013;28;20495;-63
2023/12/18 06:00:16;;;;;;;23.53;17.27;;;;;;;4.38;100.00;102994.59;5050001;28;20017;-63
2023/12/18 06:02:41;;;;;;;24.83;17.75;;;;;;;4.35;100.00;102984.06;5050651;28;20025;-63
2023/12/18 06:05:07;;;;;;;30.57;18.73;;;;;;;4.39;100.00;102991.28;5050106;28;20029;-63
2023/12/18 06:07:32;;;;;;;29.33;18.27;;;;;;;4.35;100.00;102994.31;5050373;28;20020;-64
2023/12/18 06:09:58;;;;;;;29.88;18.63;;;;;;;4.33;100.00;102992.50;5049211;28;20024;-63
2023/12/18 06:12:23;;;;;;;31.57;17.63;;;;;;;4.39;100.00;102988.72;5062377;28;20099;-64
2023/12/18 06:14:48;;;;;;;28.98;18.27;;;;;;;4.41;100.00;102994.88;5048930;28;20017;-64
2023/12/18 06:17:13;;;;;;;25.50;17.70;;;;;;;4.43;100.00;102988.22;5051249;28;20055;-64
2023/12/18 06:19:39;;;;;;;25.07;18.20;;;;;;;4.50;100.00;102990.59;5059126;28;20479;-64
2023/12/18 06:22:05;;;;;;;29.85;16.98;;;;;;;4.43;100.00;103003.63;5048354;28;20066;-63
2023/12/18 06:24:30;;;;;;;35.30;18.27;;;;;;;4.37;100.00;102988.56;5048638;28;20049;-63
2023/12/18 06:26:56;;;;;;;29.75;18.55;;;;;;;4.44;100.00;102990.91;5049186;28;20052;-63
2023/12/18 06:29:22;;;;;;;29.83;18.70;;;;;;;4.45;100.00;102989.25;5048828;28;20029;-63
2023/12/18 06:31:48;;;;;;;29.02;17.60;;;;;;;4.42;100.00;102994.13;5049763;28;20511;-64
2023/12/18 06:34:13;;;;;;;26.52;18.58;;;;;;;4.46;100.00;102988.53;5048710;28;20024;-63
2023/12/18 06:36:39;;;;;;;38.03;18.48;;;;;;;4.41;100.00;102992.31;5048465;28;20013;-63
2023/12/18 06:39:04;;;;;;;32.55;18.48;;;;;;;4.36;100.00;102986.75;5050067;28;20082;-63
2023/12/18 06:41:29;;;;;;;27.33;17.48;;;;;;;4.44;100.00;102984.91;5043205;28;20051;-63
2023/12/18 06:43:55;;;;;;;27.45;16.13;;;;;;;4.44;100.00;102985.78;5047511;28;20472;-64
2023/12/18 06:46:20;;;;;;;33.47;19.02;;;;;;;4.40;100.00;102983.72;5049478;28;20112;-64
2023/12/18 06:48:46;;;;;;;24.75;17.48;;;;;;;4.40;100.00;102982.81;5046591;28;20111;-64
2023/12/18 06:51:11;;;;;;;29.67;18.10;;;;;;;4.41;100.00;102979.47;5049649;28;20056;-64
2023/12/18 06:53:37;;;;;;;26.48;17.38;;;;;;;4.43;100.00;102980.50;5046970;28;20016;-64
2023/12/18 06:56:02;;;;;;;27.15;17.77;;;;;;;4.48;100.00;102981.84;5043557;28;20025;-64
2023/12/18 06:58:27;;;;;;;30.58;17.67;;;;;;;4.40;100.00;102976.00;5044571;28;20021;-63
2023/12/18 07:00:53;;;;;;;28.10;17.60;;;;;;;4.41;100.00;102984.59;5048823;28;20103;-64
2023/12/18 07:03:18;;;;;;;25.73;17.07;;;;;;;4.42;100.00;102996.69;5047611;28;20393;-63
2023/12/18 07:05:44;;;;;;;29.75;17.80;;;;;;;4.47;100.00;102979.13;5049034;28;20021;-63
2023/12/18 07:08:09;;;;;;;25.55;18.13;;;;;;;4.48;100.00;102986.97;5044358;28;20028;-62
2023/12/18 07:10:34;;;;;;;30.15;18.08;;;;;;;4.54;100.00;102992.69;5047470;28;20032;-62
2023/12/18 07:13:00;;;;;;;26.40;16.67;;;;;;;4.60;100.00;103006.84;5064786;28;20027;-62
2023/12/18 07:15:25;;;;;;;28.23;17.60;;;;;;;4.55;100.00;102998.72;5049814;28;20027;-62
2023/12/18 07:17:51;;;;;;;30.92;17.80;;;;;;;4.55;100.00;102998.72;5052870;28;20031;-62
2023/12/18 07:20:16;;;;;;;24.85;17.67;;;;;;;4.66;100.00;102991.97;5058275;28;20032;-63
2023/12/18 07:22:42;;;;;;;29.13;18.60;;;;;;;4.64;100.00;103004.69;5059397;28;20028;-62
2023/12/18 07:25:10;;;;;;;27.40;16.70;;;;;;;4.62;100.00;102995.06;5060289;28;20024;-63
2023/12/18 07:27:36;;;;;;;29.33;18.33;;;;;;;4.61;100.00;103004.41;5032038;28;20031;-62
2023/12/18 07:30:05;;;;;;;29.35;19.10;;;;;;;4.66;100.00;103003.16;5041548;28;20476;-62
2023/12/18 07:32:33;;;;;;;26.47;17.37;;;;;;;4.76;100.00;103010.06;5043630;28;20077;-62
2023/12/18 07:35:00;;;;;;;28.40;17.77;;;;;;;4.66;100.00;103012.53;5052280;28;20028;-62
2023/12/18 07:37:27;;;;;;;29.25;17.88;;;;;;;4.66;100.00;103002.25;5043754;28;20052;-63
2023/12/18 07:39:52;;;;;;;26.48;17.98;;;;;;;4.61;100.00;103006.97;5045050;28;20481;-62
2023/12/18 07:42:18;;;;;;;28.17;17.92;;;;;;;4.62;100.00;103006.25;5045349;28;20343;-62
2023/12/18 07:44:43;;;;;;;25.75;18.67;;;;;;;4.58;100.00;103006.72;5041948;28;20471;-63
2023/12/18 07:47:09;;;;;;;28.80;17.40;;;;;;;4.60;100.00;103009.41;5055031;28;20039;-63
2023/12/18 07:49:35;;;;;;;30.95;19.60;;;;;;;4.56;100.00;103004.00;5059572;28;20428;-62
2023/12/18 07:52:01;;;;;;;24.85;17.92;;;;;;;4.61;100.00;103008.63;5058031;28;20473;-62
2023/12/18 07:54:26;;;;;;;34.15;19.50;;;;;;;4.57;100.00;102999.75;5048426;28;20417;-62
2023/12/18 07:56:51;;;;;;;27.77;19.33;;;;;;;4.57;100.00;103003.22;5049132;28;20025;-62
2023/12/18 07:59:17;;;;;;;28.08;18.30;;;;;;;4.62;100.00;102995.06;5052017;28;20025;-62
2023/12/18 08:01:43;;;;;;;26.65;19.05;;;;;;;4.61;100.00;102996.72;5050743;28;20016;-62
2023/12/18 08:04:10;;;;;;;30.88;18.65;;;;;;;4.60;100.00;102991.44;5053053;28;20096;-63
2023/12/18 08:06:35;;;;;;;27.05;17.48;;;;;;;4.70;100.00;102991.50;5053824;28;20029;-63
2023/12/18 08:09:00;;;;;;;29.15;19.83;;;;;;;4.70;100.00;102994.06;5048550;28;20031;-63
2023/12/18 08:11:25;;;;;;;31.88;18.98;;;;;;;4.62;100.00;102989.91;5058482;28;20102;-62
2023/12/18 08:13:51;;;;;;;26.70;17.83;;;;;;;4.59;100.00;102984.50;5046024;28;20543;-62
2023/12/18 08:16:17;;;;;;;27.02;18.38;;;;;;;4.65;100.00;102985.97;5047971;28;20021;-63
2023/12/18 08:18:42;;;;;;;27.35;18.17;;;;;;;4.65;100.00;102983.38;5047253;28;20028;-62
2023/12/18 08:21:12;;;;;;;28.40;19.10;;;;;;;4.64;100.00;102980.69;5047341;28;20025;-62
2023/12/18 08:23:37;;;;;;;31.42;18.58;;;;;;;4.63;100.00;102979.78;5050243;28;20036;-63
2023/12/18 08:26:02;;;;;;;33.15;18.63;;;;;;;4.70;100.00;102978.66;5048336;28;20420;-62
2023/12/18 08:28:27;;;;;;;34.88;19.00;;;;;;;4.73;100.00;102973.78;5053972;28;20046;-62
2023/12/18 08:30:52;;;;;;;25.80;18.15;;;;;;;4.81;100.00;102974.50;5046815;28;20098;-62
2023/12/18 08:33:18;;;;;;;38.60;19.52;;;;;;;4.71;100.00;102985.63;5057392;28;20498;-62
2023/12/18 08:35:43;;;;;;;29.58;18.38;;;;;;;4.78;100.00;102972.56;5052433;28;20083;-62
2023/12/18 08:38:08;;;;;;;28.23;18.08;;;;;;;4.88;100.00;102968.22;5056108;28;20031;-62
2023/12/18 08:40:34;;;;;;;29.42;18.33;;;;;;;4.89;100.00;102973.50;5053439;28;20520;-63
2023/12/18 08:42:59;;;;;;;24.23;17.23;;;;;;;4.94;100.00;102971.38;5053089;28;20025;-62
2023/12/18 08:45:24;;;;;;;27.90;17.52;;;;;;;4.97;100.00;102960.44;5046654;28;20059;-62
2023/12/18 08:47:50;;;;;;;27.23;18.17;;;;;;;5.00;100.00;102964.19;5047086;28;20027;-62
2023/12/18 08:50:15;;;;;;;24.25;17.65;;;;;;;4.99;100.00;102962.41;5055630;28;20123;-62
2023/12/18 08:52:40;;;;;;;27.55;17.65;;;;;;;5.03;100.00;102963.56;5059319;28;20453;-63
2023/12/18 08:55:06;;;;;;;29.80;19.27;;;;;;;5.00;100.00;102959.03;5062505;28;20033;-62
2023/12/18 08:57:31;;;;;;;29.65;17.90;;;;;;;4.98;100.00;102958.03;5059663;28;20494;-62
2023/12/18 08:59:56;;;;;;;24.88;17.15;;;;;;;5.03;100.00;102954.19;5052375;28;20741;-62
2023/12/18 09:02:21;;;;;;;29.63;18.17;;;;;;;4.98;100.00;102958.03;5058902;28;20032;-62
2023/12/18 09:04:47;;;;;;;29.75;19.17;;;;;;;5.06;100.00;102961.25;5041059;28;20461;-62
2023/12/18 09:07:13;;;;;;;30.45;19.30;;;;;;;4.98;100.00;102958.03;5050350;28;20021;-63
2023/12/18 09:09:39;;;;;;;30.35;19.77;;;;;;;4.96;100.00;102951.84;5051292;28;20035;-62
2023/12/18 09:12:08;;;;;;;34.17;20.58;;;;;;;4.90;100.00;102959.91;5051056;28;20032;-62
2023/12/18 09:14:35;;;;;;;28.88;19.00;;;;;;;5.01;100.00;102955.72;5050860;28;20048;-62
2023/12/18 09:17:00;;;;;;;29.38;18.23;;;;;;;4.97;100.00;102961.34;5053056;28;20097;-63
2023/12/18 09:19:25;;;;;;;28.30;19.17;;;;;;;4.95;100.00;102957.72;5053283;28;20051;-62
2023/12/18 09:21:51;;;;;;;31.27;19.77;;;;;;;4.96;100.00;102957.00;5052222;28;20040;-63
2023/12/18 09:24:16;;;;;;;36.33;20.02;;;;;;;4.99;100.00;102949.53;5062737;28;20024;-62
2023/12/18 09:26:41;;;;;;;34.22;19.83;;;;;;;4.97;100.00;102952.72;5050433;28;20473;-62
2023/12/18 09:29:07;;;;;;;31.35;19.58;;;;;;;4.99;100.00;102957.25;5050995;28;20477;-63
2023/12/18 09:31:32;;;;;;;25.75;17.40;;;;;;;5.05;100.00;102955.22;5051162;28;20033;-62
2023/12/18 09:33:57;;;;;;;29.70;19.52;;;;;;;5.07;100.00;102957.94;5052965;28;20393;-63
2023/12/18 09:36:22;;;;;;;34.55;19.70;;;;;;;5.02;100.00;102967.78;5049606;28;20082;-62
2023/12/18 09:38:48;;;;;;;29.02;19.92;;;;;;;5.01;100.00;102960.88;5052436;28;20320;-62
2023/12/18 09:41:23;;;;;;;28.75;18.88;;;;;;;5.03;100.00;102972.19;5056513;28;20384;-62
2023/12/18 09:43:51;;;;;;;28.17;19.35;;;;;;;4.99;100.00;102967.53;5049150;28;20036;-63
2023/12/18 09:46:17;;;;;;;31.75;19.08;;;;;;;5.01;100.00;102966.00;5053542;28;20526;-62
2023/12/18 09:48:43;;;;;;;28.95;18.40;;;;;;;4.98;100.00;102965.75;5060486;28;20294;-62
2023/12/18 09:51:15;;;;;;;27.20;19.30;;;;;;;5.01;100.00;102966.00;5050618;28;20473;-63
2023/12/18 09:53:40;;;;;;;28.83;18.05;;;;;;;5.04;100.00;102966.28;5053229;28;20037;-63
2023/12/18 09:56:06;;;;;;;27.48;17.10;;;;;;;5.09;100.00;102960.66;5050676;28;20484;-61
2023/12/18 09:58:32;;;;;;;26.05;17.73;;;;;;;5.12;100.00;102964.41;5058654;28;20083;-63
2023/12/18 10:00:59;;;;;;;25.00;16.85;;;;;;;5.14;100.00;102951.66;5047277;28;20071;-62
2023/12/18 10:03:24;;;;;;;28.50;18.55;;;;;;;5.18;100.00;102964.00;5047009;28;20043;-63
2023/12/18 10:05:49;;;;;;;26.55;17.48;;;;;;;5.21;100.00;102964.31;5051516;28;20380;-63
2023/12/18 10:08:15;;;;;;;28.33;16.70;;;;;;;5.22;100.00;102955.81;5049682;28;20025;-63
2023/12/18 10:10:43;;;;;;;25.70;17.00;;;;;;;5.17;100.00;102962.22;5048995;28;20033;-63
2023/12/18 10:13:11;;;;;;;27.27;17.33;;;;;;;5.16;100.00;102955.28;5059838;28;20121;-62
2023/12/18 10:15:39;;;;;;;26.13;17.55;;;;;;;5.13;100.00;102949.84;5052035;28;20159;-63
2023/12/18 10:18:05;;;;;;;23.20;15.50;;;;;;;5.18;100.00;102952.84;5049793;28;20425;-63
2023/12/18 10:20:33;;;;;;;25.20;17.02;;;;;;;5.25;100.00;102948.34;5051678;28;20032;-62
2023/12/18 10:23:00;;;;;;;25.23;17.17;;;;;;;5.22;100.00;102950.66;5058816;28;20122;-63
2023/12/18 10:25:25;;;;;;;22.73;16.25;;;;;;;5.26;100.00;102951.84;5050866;28;20032;-63
2023/12/18 10:27:54;;;;;;;23.73;16.00;;;;;;;5.24;100.00;102953.38;5048146;28;20044;-62
2023/12/18 10:30:20;;;;;;;23.38;16.60;;;;;;;5.25;100.00;102950.94;5051801;28;20074;-62
2023/12/18 10:32:46;;;;;;;23.52;16.25;;;;;;;5.23;100.00;102954.16;5065701;28;20028;-62
2023/12/18 10:35:11;;;;;;;21.88;16.80;;;;;;;5.22;100.00;102954.91;5040029;28;20032;-63
2023/12/18 10:37:42;;;;;;;24.40;16.75;;;;;;;5.31;100.00;102945.44;5048657;28;20041;-62
2023/12/18 10:40:11;;;;;;;32.17;17.67;;;;;;;5.26;100.00;102937.31;5049793;28;20473;-63
2023/12/18 10:42:37;;;;;;;27.20;16.98;;;;;;;5.11;100.00;102929.16;5048226;28;20029;-63
2023/12/18 10:45:06;;;;;;;25.80;15.90;;;;;;;5.12;100.00;102927.50;5048856;28;20032;-63
2023/12/18 10:47:32;;;;;;;25.50;17.17;;;;;;;5.13;100.00;102921.56;5051181;28;20495;-63
2023/12/18 10:50:01;;;;;;;25.98;18.38;;;;;;;5.18;100.00;102915.16;5048272;28;20087;-63
2023/12/18 10:52:29;;;;;;;29.25;17.30;;;;;;;5.14;100.00;102920.81;5046671;28;20369;-62
2023/12/18 10:55:00;;;;;;;23.23;16.25;;;;;;;5.25;100.00;102912.38;5058970;28;20033;-63
2023/12/18 10:57:26;;;;;;;24.50;15.85;;;;;;;5.29;100.00;102906.72;5061980;28;20028;-62
2023/12/18 10:59:52;;;;;;;26.63;17.15;;;;;;;5.22;100.00;102900.91;5055624;28;20032;-62
2023/12/18 11:02:18;;;;;;;21.85;15.43;;;;;;;5.25;100.00;102899.50;5047834;28;20469;-63